sensor_id;sensor_type;location;lat;lon;timestamp;P1;durP1;ratioP1;P2;durP2;ratioP2
10144;SDS011;5113;41.822;23.564;2024-01-30T00:01:30;14.20;;;6.67;;
10144;SDS011;5113;41.822;23.564;2024-01-30T00:04:36;11.13;;;6.10;;
10144;SDS011;5113;41.822;23.564;2024-01-30T00:07:43;7.07;;;4.80;;
10144;SDS011;5113;41.822;23.564;2024-01-30T00:10:50;14.73;;;6.60;;
10144;SDS011;5113;41.822;23.564;2024-01-30T00:13:56;18.30;;;8.27;;
10144;SDS011;5113;41.822;23.564;2024-01-30T00:17:04;12.87;;;7.33;;
10144;SDS011;5113;41.822;23.564;2024-01-30T00:20:11;13.93;;;5.50;;
10144;SDS011;5113;41.822;23.564;2024-01-30T00:23:18;6.30;;;4.30;;
10144;SDS011;5113;41.822;23.564;2024-01-30T00:26:24;3.50;;;3.20;;
10144;SDS011;5113;41.822;23.564;2024-01-30T00:29:31;3.10;;;2.90;;
10144;SDS011;5113;41.822;23.564;2024-01-30T00:32:40;3.80;;;3.50;;
10144;SDS011;5113;41.822;23.564;2024-01-30T00:35:47;7.63;;;4.40;;
10144;SDS011;5113;41.822;23.564;2024-01-30T00:38:53;6.40;;;5.20;;
10144;SDS011;5113;41.822;23.564;2024-01-30T00:42:00;6.07;;;4.63;;
10144;SDS011;5113;41.822;23.564;2024-01-30T00:45:11;5.83;;;5.00;;
10144;SDS011;5113;41.822;23.564;2024-01-30T00:48:19;4.07;;;3.50;;
10144;SDS011;5113;41.822;23.564;2024-01-30T00:51:26;3.57;;;3.27;;
10144;SDS011;5113;41.822;23.564;2024-01-30T00:54:34;6.60;;;5.83;;
10144;SDS011;5113;41.822;23.564;2024-01-30T00:57:41;10.43;;;5.03;;
10144;SDS011;5113;41.822;23.564;2024-01-30T01:00:49;20.97;;;9.13;;
10144;SDS011;5113;41.822;23.564;2024-01-30T01:03:57;51.27;;;21.87;;
10144;SDS011;5113;41.822;23.564;2024-01-30T01:07:04;42.00;;;16.70;;
10144;SDS011;5113;41.822;23.564;2024-01-30T01:10:11;17.97;;;9.50;;
10144;SDS011;5113;41.822;23.564;2024-01-30T01:13:18;12.57;;;8.30;;
10144;SDS011;5113;41.822;23.564;2024-01-30T01:16:25;15.73;;;9.10;;
10144;SDS011;5113;41.822;23.564;2024-01-30T01:19:33;23.80;;;10.47;;
10144;SDS011;5113;41.822;23.564;2024-01-30T01:22:40;20.00;;;9.37;;
10144;SDS011;5113;41.822;23.564;2024-01-30T01:25:46;14.53;;;8.00;;
10144;SDS011;5113;41.822;23.564;2024-01-30T01:28:52;13.93;;;7.10;;
10144;SDS011;5113;41.822;23.564;2024-01-30T01:31:59;17.57;;;9.43;;
10144;SDS011;5113;41.822;23.564;2024-01-30T01:35:07;17.47;;;9.03;;
10144;SDS011;5113;41.822;23.564;2024-01-30T01:38:14;22.30;;;12.20;;
10144;SDS011;5113;41.822;23.564;2024-01-30T01:41:20;20.23;;;9.87;;
10144;SDS011;5113;41.822;23.564;2024-01-30T01:44:27;12.93;;;6.27;;
10144;SDS011;5113;41.822;23.564;2024-01-30T01:47:34;11.63;;;5.57;;
10144;SDS011;5113;41.822;23.564;2024-01-30T01:50:42;6.80;;;4.70;;
10144;SDS011;5113;41.822;23.564;2024-01-30T01:53:49;9.37;;;4.97;;
10144;SDS011;5113;41.822;23.564;2024-01-30T01:56:56;11.00;;;5.13;;
10144;SDS011;5113;41.822;23.564;2024-01-30T02:00:04;8.80;;;4.83;;
10144;SDS011;5113;41.822;23.564;2024-01-30T02:03:11;14.57;;;7.33;;
10144;SDS011;5113;41.822;23.564;2024-01-30T02:06:22;20.13;;;10.30;;
10144;SDS011;5113;41.822;23.564;2024-01-30T02:09:29;18.27;;;10.53;;
10144;SDS011;5113;41.822;23.564;2024-01-30T02:12:37;16.47;;;8.77;;
10144;SDS011;5113;41.822;23.564;2024-01-30T02:15:43;15.50;;;9.70;;
10144;SDS011;5113;41.822;23.564;2024-01-30T02:18:55;14.40;;;9.57;;
10144;SDS011;5113;41.822;23.564;2024-01-30T02:22:04;11.20;;;6.70;;
10144;SDS011;5113;41.822;23.564;2024-01-30T02:25:11;13.93;;;7.07;;
10144;SDS011;5113;41.822;23.564;2024-01-30T02:28:17;14.13;;;7.67;;
10144;SDS011;5113;41.822;23.564;2024-01-30T02:31:25;24.17;;;9.17;;
10144;SDS011;5113;41.822;23.564;2024-01-30T02:34:31;23.80;;;11.13;;
10144;SDS011;5113;41.822;23.564;2024-01-30T02:37:40;15.20;;;7.43;;
10144;SDS011;5113;41.822;23.564;2024-01-30T02:40:46;20.97;;;8.30;;
10144;SDS011;5113;41.822;23.564;2024-01-30T02:43:53;18.27;;;10.73;;
10144;SDS011;5113;41.822;23.564;2024-01-30T02:46:59;32.40;;;13.03;;
10144;SDS011;5113;41.822;23.564;2024-01-30T02:50:07;31.47;;;14.80;;
10144;SDS011;5113;41.822;23.564;2024-01-30T02:53:16;36.93;;;17.53;;
10144;SDS011;5113;41.822;23.564;2024-01-30T02:56:22;19.37;;;11.03;;
10144;SDS011;5113;41.822;23.564;2024-01-30T02:59:29;19.63;;;11.93;;
10144;SDS011;5113;41.822;23.564;2024-01-30T03:02:37;18.23;;;9.60;;
10144;SDS011;5113;41.822;23.564;2024-01-30T03:05:44;16.70;;;8.47;;
10144;SDS011;5113;41.822;23.564;2024-01-30T03:08:52;37.83;;;18.40;;
10144;SDS011;5113;41.822;23.564;2024-01-30T03:11:58;237.77;;;79.30;;
10144;SDS011;5113;41.822;23.564;2024-01-30T03:15:06;116.20;;;41.57;;
10144;SDS011;5113;41.822;23.564;2024-01-30T03:18:14;67.33;;;24.17;;
10144;SDS011;5113;41.822;23.564;2024-01-30T03:21:21;60.93;;;20.43;;
10144;SDS011;5113;41.822;23.564;2024-01-30T03:24:29;32.47;;;13.83;;
10144;SDS011;5113;41.822;23.564;2024-01-30T03:27:36;17.30;;;9.00;;
10144;SDS011;5113;41.822;23.564;2024-01-30T03:30:42;15.10;;;8.70;;
10144;SDS011;5113;41.822;23.564;2024-01-30T03:33:49;25.27;;;12.67;;
10144;SDS011;5113;41.822;23.564;2024-01-30T03:36:55;52.73;;;27.70;;
10144;SDS011;5113;41.822;23.564;2024-01-30T03:40:05;50.77;;;24.10;;
10144;SDS011;5113;41.822;23.564;2024-01-30T03:43:12;46.67;;;21.30;;
10144;SDS011;5113;41.822;23.564;2024-01-30T03:46:18;36.10;;;19.33;;
10144;SDS011;5113;41.822;23.564;2024-01-30T03:49:25;35.13;;;18.50;;
10144;SDS011;5113;41.822;23.564;2024-01-30T03:52:32;38.90;;;18.67;;
10144;SDS011;5113;41.822;23.564;2024-01-30T03:55:40;27.40;;;14.00;;
10144;SDS011;5113;41.822;23.564;2024-01-30T03:58:46;23.43;;;13.20;;
10144;SDS011;5113;41.822;23.564;2024-01-30T04:01:53;19.83;;;12.43;;
10144;SDS011;5113;41.822;23.564;2024-01-30T04:05:00;20.27;;;11.50;;
10144;SDS011;5113;41.822;23.564;2024-01-30T04:08:07;23.00;;;12.77;;
10144;SDS011;5113;41.822;23.564;2024-01-30T04:11:15;25.47;;;11.73;;
10144;SDS011;5113;41.822;23.564;2024-01-30T04:14:24;20.47;;;12.33;;
10144;SDS011;5113;41.822;23.564;2024-01-30T04:17:31;29.50;;;14.03;;
10144;SDS011;5113;41.822;23.564;2024-01-30T04:20:38;29.70;;;17.67;;
10144;SDS011;5113;41.822;23.564;2024-01-30T04:23:44;36.27;;;18.37;;
10144;SDS011;5113;41.822;23.564;2024-01-30T04:26:53;24.97;;;14.93;;
10144;SDS011;5113;41.822;23.564;2024-01-30T04:29:59;22.30;;;12.07;;
10144;SDS011;5113;41.822;23.564;2024-01-30T04:33:05;22.93;;;11.60;;
10144;SDS011;5113;41.822;23.564;2024-01-30T04:36:12;32.30;;;17.23;;
10144;SDS011;5113;41.822;23.564;2024-01-30T04:39:18;40.10;;;22.03;;
10144;SDS011;5113;41.822;23.564;2024-01-30T04:42:27;45.97;;;18.33;;
10144;SDS011;5113;41.822;23.564;2024-01-30T04:45:34;30.67;;;17.63;;
10144;SDS011;5113;41.822;23.564;2024-01-30T04:48:41;47.70;;;23.33;;
10144;SDS011;5113;41.822;23.564;2024-01-30T04:51:48;69.53;;;26.50;;
10144;SDS011;5113;41.822;23.564;2024-01-30T04:54:55;49.20;;;24.80;;
10144;SDS011;5113;41.822;23.564;2024-01-30T04:58:03;52.33;;;24.13;;
10144;SDS011;5113;41.822;23.564;2024-01-30T05:01:09;96.83;;;44.93;;
10144;SDS011;5113;41.822;23.564;2024-01-30T05:04:21;127.37;;;53.07;;
10144;SDS011;5113;41.822;23.564;2024-01-30T05:07:28;45.70;;;20.87;;
10144;SDS011;5113;41.822;23.564;2024-01-30T05:10:35;38.00;;;18.97;;
10144;SDS011;5113;41.822;23.564;2024-01-30T05:13:43;33.57;;;21.93;;
10144;SDS011;5113;41.822;23.564;2024-01-30T05:16:49;45.37;;;21.13;;
10144;SDS011;5113;41.822;23.564;2024-01-30T05:19:55;62.50;;;27.07;;
10144;SDS011;5113;41.822;23.564;2024-01-30T05:23:02;74.60;;;26.50;;
10144;SDS011;5113;41.822;23.564;2024-01-30T05:26:09;79.23;;;32.93;;
10144;SDS011;5113;41.822;23.564;2024-01-30T05:29:17;121.73;;;45.17;;
10144;SDS011;5113;41.822;23.564;2024-01-30T05:32:23;60.43;;;25.23;;
10144;SDS011;5113;41.822;23.564;2024-01-30T05:35:30;89.87;;;35.47;;
10144;SDS011;5113;41.822;23.564;2024-01-30T05:38:37;76.23;;;32.17;;
10144;SDS011;5113;41.822;23.564;2024-01-30T05:41:43;69.80;;;30.93;;
10144;SDS011;5113;41.822;23.564;2024-01-30T05:44:51;51.97;;;25.93;;
10144;SDS011;5113;41.822;23.564;2024-01-30T05:47:59;46.97;;;26.03;;
10144;SDS011;5113;41.822;23.564;2024-01-30T05:51:06;53.07;;;28.70;;
10144;SDS011;5113;41.822;23.564;2024-01-30T05:54:14;49.87;;;26.20;;
10144;SDS011;5113;41.822;23.564;2024-01-30T05:57:22;48.47;;;25.80;;
10144;SDS011;5113;41.822;23.564;2024-01-30T06:00:30;51.63;;;27.13;;
10144;SDS011;5113;41.822;23.564;2024-01-30T06:03:36;135.67;;;54.33;;
10144;SDS011;5113;41.822;23.564;2024-01-30T06:06:43;107.77;;;48.43;;
10144;SDS011;5113;41.822;23.564;2024-01-30T06:09:50;99.70;;;43.13;;
10144;SDS011;5113;41.822;23.564;2024-01-30T06:12:57;57.80;;;25.43;;
10144;SDS011;5113;41.822;23.564;2024-01-30T06:16:08;78.40;;;38.67;;
10144;SDS011;5113;41.822;23.564;2024-01-30T06:19:16;63.73;;;26.70;;
10144;SDS011;5113;41.822;23.564;2024-01-30T06:22:22;74.90;;;33.40;;
10144;SDS011;5113;41.822;23.564;2024-01-30T06:25:29;45.83;;;19.97;;
10144;SDS011;5113;41.822;23.564;2024-01-30T06:28:36;48.87;;;23.23;;
10144;SDS011;5113;41.822;23.564;2024-01-30T06:31:44;83.00;;;35.60;;
10144;SDS011;5113;41.822;23.564;2024-01-30T06:34:51;76.17;;;30.57;;
10144;SDS011;5113;41.822;23.564;2024-01-30T06:37:57;82.33;;;39.17;;
10144;SDS011;5113;41.822;23.564;2024-01-30T06:41:04;83.80;;;40.87;;
10144;SDS011;5113;41.822;23.564;2024-01-30T06:44:12;57.93;;;27.17;;
10144;SDS011;5113;41.822;23.564;2024-01-30T06:47:20;77.27;;;35.97;;
10144;SDS011;5113;41.822;23.564;2024-01-30T06:50:27;89.57;;;37.20;;
10144;SDS011;5113;41.822;23.564;2024-01-30T06:53:33;57.83;;;28.90;;
10144;SDS011;5113;41.822;23.564;2024-01-30T06:56:40;33.20;;;19.03;;
10144;SDS011;5113;41.822;23.564;2024-01-30T06:59:47;60.97;;;28.27;;
10144;SDS011;5113;41.822;23.564;2024-01-30T07:02:55;29.70;;;16.30;;
10144;SDS011;5113;41.822;23.564;2024-01-30T07:06:02;28.00;;;16.13;;
10144;SDS011;5113;41.822;23.564;2024-01-30T07:09:08;28.03;;;14.87;;
10144;SDS011;5113;41.822;23.564;2024-01-30T07:12:15;51.93;;;23.37;;
10144;SDS011;5113;41.822;23.564;2024-01-30T07:15:22;32.17;;;18.97;;
10144;SDS011;5113;41.822;23.564;2024-01-30T07:18:30;28.47;;;13.30;;
10144;SDS011;5113;41.822;23.564;2024-01-30T07:21:36;21.33;;;12.30;;
10144;SDS011;5113;41.822;23.564;2024-01-30T07:24:45;29.80;;;14.60;;
10144;SDS011;5113;41.822;23.564;2024-01-30T07:27:54;23.80;;;14.40;;
10144;SDS011;5113;41.822;23.564;2024-01-30T07:31:01;27.57;;;16.40;;
10144;SDS011;5113;41.822;23.564;2024-01-30T07:34:09;29.13;;;14.17;;
10144;SDS011;5113;41.822;23.564;2024-01-30T07:37:16;31.03;;;16.10;;
10144;SDS011;5113;41.822;23.564;2024-01-30T07:40:23;28.40;;;14.43;;
10144;SDS011;5113;41.822;23.564;2024-01-30T07:43:30;31.63;;;17.60;;
10144;SDS011;5113;41.822;23.564;2024-01-30T07:46:39;34.17;;;17.23;;
10144;SDS011;5113;41.822;23.564;2024-01-30T07:49:46;25.03;;;14.33;;
10144;SDS011;5113;41.822;23.564;2024-01-30T07:52:55;17.23;;;9.27;;
10144;SDS011;5113;41.822;23.564;2024-01-30T07:56:02;18.40;;;10.43;;
10144;SDS011;5113;41.822;23.564;2024-01-30T07:59:09;25.50;;;14.87;;
10144;SDS011;5113;41.822;23.564;2024-01-30T08:02:16;33.40;;;16.80;;
10144;SDS011;5113;41.822;23.564;2024-01-30T08:05:24;19.93;;;11.87;;
10144;SDS011;5113;41.822;23.564;2024-01-30T08:08:31;19.63;;;10.57;;
10144;SDS011;5113;41.822;23.564;2024-01-30T08:11:38;11.33;;;7.37;;
10144;SDS011;5113;41.822;23.564;2024-01-30T08:14:45;11.97;;;7.73;;
10144;SDS011;5113;41.822;23.564;2024-01-30T08:17:51;19.97;;;10.33;;
10144;SDS011;5113;41.822;23.564;2024-01-30T08:21:04;24.93;;;11.67;;
10144;SDS011;5113;41.822;23.564;2024-01-30T08:24:11;11.60;;;7.70;;
10144;SDS011;5113;41.822;23.564;2024-01-30T08:27:17;12.57;;;7.10;;
10144;SDS011;5113;41.822;23.564;2024-01-30T08:30:23;12.90;;;7.87;;
10144;SDS011;5113;41.822;23.564;2024-01-30T08:33:30;14.53;;;6.77;;
10144;SDS011;5113;41.822;23.564;2024-01-30T08:36:38;8.43;;;5.97;;
10144;SDS011;5113;41.822;23.564;2024-01-30T08:39:44;7.17;;;4.77;;
10144;SDS011;5113;41.822;23.564;2024-01-30T08:42:51;6.17;;;3.87;;
10144;SDS011;5113;41.822;23.564;2024-01-30T08:45:58;3.40;;;3.13;;
10144;SDS011;5113;41.822;23.564;2024-01-30T08:49:05;4.03;;;3.07;;
10144;SDS011;5113;41.822;23.564;2024-01-30T08:52:14;6.97;;;4.47;;
10144;SDS011;5113;41.822;23.564;2024-01-30T08:55:20;7.60;;;3.87;;
10144;SDS011;5113;41.822;23.564;2024-01-30T08:58:27;6.33;;;4.43;;
10144;SDS011;5113;41.822;23.564;2024-01-30T09:01:34;9.37;;;4.97;;
10144;SDS011;5113;41.822;23.564;2024-01-30T09:04:41;6.37;;;3.77;;
10144;SDS011;5113;41.822;23.564;2024-01-30T09:07:49;6.03;;;3.60;;
10144;SDS011;5113;41.822;23.564;2024-01-30T09:10:56;5.00;;;3.40;;
10144;SDS011;5113;41.822;23.564;2024-01-30T09:14:03;4.77;;;4.33;;
10144;SDS011;5113;41.822;23.564;2024-01-30T09:17:09;5.57;;;4.00;;
10144;SDS011;5113;41.822;23.564;2024-01-30T09:20:16;3.00;;;2.80;;
10144;SDS011;5113;41.822;23.564;2024-01-30T09:23:26;4.57;;;3.20;;
10144;SDS011;5113;41.822;23.564;2024-01-30T09:26:33;11.80;;;5.50;;
10144;SDS011;5113;41.822;23.564;2024-01-30T09:29:40;20.47;;;10.60;;
10144;SDS011;5113;41.822;23.564;2024-01-30T09:32:47;10.13;;;5.50;;
10144;SDS011;5113;41.822;23.564;2024-01-30T09:35:54;12.07;;;6.70;;
10144;SDS011;5113;41.822;23.564;2024-01-30T09:39:02;11.90;;;6.67;;
10144;SDS011;5113;41.822;23.564;2024-01-30T09:42:10;7.07;;;5.23;;
10144;SDS011;5113;41.822;23.564;2024-01-30T09:45:24;2.93;;;2.73;;
10144;SDS011;5113;41.822;23.564;2024-01-30T09:48:32;3.67;;;3.37;;
10144;SDS011;5113;41.822;23.564;2024-01-30T09:51:40;5.47;;;3.57;;
10144;SDS011;5113;41.822;23.564;2024-01-30T09:54:49;3.43;;;3.00;;
10144;SDS011;5113;41.822;23.564;2024-01-30T09:57:57;5.83;;;3.97;;
10144;SDS011;5113;41.822;23.564;2024-01-30T10:01:04;5.90;;;4.23;;
10144;SDS011;5113;41.822;23.564;2024-01-30T10:04:11;3.23;;;2.90;;
10144;SDS011;5113;41.822;23.564;2024-01-30T10:07:18;3.37;;;2.57;;
10144;SDS011;5113;41.822;23.564;2024-01-30T10:10:27;2.80;;;2.60;;
10144;SDS011;5113;41.822;23.564;2024-01-30T10:13:34;3.33;;;3.03;;
10144;SDS011;5113;41.822;23.564;2024-01-30T10:16:40;4.37;;;2.77;;
10144;SDS011;5113;41.822;23.564;2024-01-30T10:19:47;4.43;;;2.90;;
10144;SDS011;5113;41.822;23.564;2024-01-30T10:22:55;13.77;;;8.80;;
10144;SDS011;5113;41.822;23.564;2024-01-30T10:26:04;6.60;;;4.13;;
10144;SDS011;5113;41.822;23.564;2024-01-30T10:29:11;13.23;;;8.23;;
10144;SDS011;5113;41.822;23.564;2024-01-30T10:32:17;4.20;;;3.80;;
10144;SDS011;5113;41.822;23.564;2024-01-30T10:35:26;7.53;;;6.43;;
10144;SDS011;5113;41.822;23.564;2024-01-30T10:38:33;6.30;;;4.83;;
10144;SDS011;5113;41.822;23.564;2024-01-30T10:41:42;14.00;;;8.03;;
10144;SDS011;5113;41.822;23.564;2024-01-30T10:44:52;3.17;;;2.87;;
10144;SDS011;5113;41.822;23.564;2024-01-30T10:48:06;4.20;;;3.70;;
10144;SDS011;5113;41.822;23.564;2024-01-30T10:51:15;3.67;;;2.70;;
10144;SDS011;5113;41.822;23.564;2024-01-30T10:54:22;2.47;;;2.37;;
10144;SDS011;5113;41.822;23.564;2024-01-30T10:57:32;3.37;;;2.63;;
10144;SDS011;5113;41.822;23.564;2024-01-30T11:00:41;4.37;;;3.60;;
10144;SDS011;5113;41.822;23.564;2024-01-30T11:03:49;3.90;;;3.60;;
10144;SDS011;5113;41.822;23.564;2024-01-30T11:06:57;2.53;;;1.93;;
10144;SDS011;5113;41.822;23.564;2024-01-30T11:10:04;2.27;;;2.10;;
10144;SDS011;5113;41.822;23.564;2024-01-30T11:13:15;8.10;;;3.13;;
10144;SDS011;5113;41.822;23.564;2024-01-30T11:16:22;3.33;;;2.93;;
10144;SDS011;5113;41.822;23.564;2024-01-30T11:19:30;4.93;;;4.47;;
10144;SDS011;5113;41.822;23.564;2024-01-30T11:22:38;3.77;;;3.33;;
10144;SDS011;5113;41.822;23.564;2024-01-30T11:25:48;8.97;;;4.90;;
10144;SDS011;5113;41.822;23.564;2024-01-30T11:28:56;13.37;;;9.57;;
10144;SDS011;5113;41.822;23.564;2024-01-30T11:32:03;9.47;;;6.00;;
10144;SDS011;5113;41.822;23.564;2024-01-30T11:35:10;3.93;;;3.30;;
10144;SDS011;5113;41.822;23.564;2024-01-30T11:38:18;5.73;;;4.13;;
10144;SDS011;5113;41.822;23.564;2024-01-30T11:41:24;7.23;;;3.70;;
10144;SDS011;5113;41.822;23.564;2024-01-30T11:44:32;3.73;;;3.00;;
10144;SDS011;5113;41.822;23.564;2024-01-30T11:47:39;8.60;;;6.17;;
10144;SDS011;5113;41.822;23.564;2024-01-30T11:50:48;12.03;;;9.17;;
10144;SDS011;5113;41.822;23.564;2024-01-30T11:53:56;4.53;;;4.13;;
10144;SDS011;5113;41.822;23.564;2024-01-30T11:57:04;5.13;;;4.00;;
10144;SDS011;5113;41.822;23.564;2024-01-30T12:00:15;5.43;;;4.93;;
10144;SDS011;5113;41.822;23.564;2024-01-30T12:03:23;13.83;;;8.50;;
10144;SDS011;5113;41.822;23.564;2024-01-30T12:06:29;13.33;;;8.83;;
10144;SDS011;5113;41.822;23.564;2024-01-30T12:09:36;11.53;;;4.10;;
10144;SDS011;5113;41.822;23.564;2024-01-30T12:12:44;7.70;;;4.67;;
10144;SDS011;5113;41.822;23.564;2024-01-30T12:15:55;2.50;;;2.17;;
10144;SDS011;5113;41.822;23.564;2024-01-30T12:19:02;18.27;;;11.20;;
10144;SDS011;5113;41.822;23.564;2024-01-30T12:22:10;17.20;;;8.43;;
10144;SDS011;5113;41.822;23.564;2024-01-30T12:25:17;4.93;;;3.70;;
10144;SDS011;5113;41.822;23.564;2024-01-30T12:28:28;4.50;;;3.00;;
10144;SDS011;5113;41.822;23.564;2024-01-30T12:31:36;5.83;;;4.97;;
10144;SDS011;5113;41.822;23.564;2024-01-30T12:34:44;5.83;;;4.73;;
10144;SDS011;5113;41.822;23.564;2024-01-30T12:38:03;3.03;;;2.50;;
10144;SDS011;5113;41.822;23.564;2024-01-30T12:41:10;2.57;;;2.37;;
10144;SDS011;5113;41.822;23.564;2024-01-30T12:44:17;4.47;;;2.97;;
10144;SDS011;5113;41.822;23.564;2024-01-30T12:47:25;2.90;;;2.70;;
10144;SDS011;5113;41.822;23.564;2024-01-30T12:50:31;6.63;;;4.60;;
10144;SDS011;5113;41.822;23.564;2024-01-30T12:53:38;5.47;;;4.57;;
10144;SDS011;5113;41.822;23.564;2024-01-30T12:56:45;11.73;;;5.60;;
10144;SDS011;5113;41.822;23.564;2024-01-30T12:59:51;8.13;;;4.80;;
10144;SDS011;5113;41.822;23.564;2024-01-30T13:02:59;3.80;;;3.47;;
10144;SDS011;5113;41.822;23.564;2024-01-30T13:06:06;5.00;;;3.60;;
10144;SDS011;5113;41.822;23.564;2024-01-30T13:09:12;14.67;;;8.40;;
10144;SDS011;5113;41.822;23.564;2024-01-30T13:12:19;9.10;;;5.47;;
10144;SDS011;5113;41.822;23.564;2024-01-30T13:15:25;7.33;;;5.03;;
10144;SDS011;5113;41.822;23.564;2024-01-30T13:18:33;9.23;;;5.83;;
10144;SDS011;5113;41.822;23.564;2024-01-30T13:21:41;9.73;;;6.33;;
10144;SDS011;5113;41.822;23.564;2024-01-30T13:24:47;8.90;;;6.83;;
10144;SDS011;5113;41.822;23.564;2024-01-30T13:27:53;17.60;;;5.20;;
10144;SDS011;5113;41.822;23.564;2024-01-30T13:31:00;17.37;;;3.87;;
10144;SDS011;5113;41.822;23.564;2024-01-30T13:34:08;3.37;;;2.70;;
10144;SDS011;5113;41.822;23.564;2024-01-30T13:37:14;3.90;;;3.60;;
10144;SDS011;5113;41.822;23.564;2024-01-30T13:40:21;7.80;;;5.20;;
10144;SDS011;5113;41.822;23.564;2024-01-30T13:43:28;11.67;;;7.03;;
10144;SDS011;5113;41.822;23.564;2024-01-30T13:46:35;8.93;;;5.60;;
10144;SDS011;5113;41.822;23.564;2024-01-30T13:49:44;3.37;;;3.07;;
10144;SDS011;5113;41.822;23.564;2024-01-30T13:52:51;3.73;;;3.30;;
10144;SDS011;5113;41.822;23.564;2024-01-30T13:55:58;7.03;;;5.43;;
10144;SDS011;5113;41.822;23.564;2024-01-30T13:59:05;9.10;;;6.57;;
10144;SDS011;5113;41.822;23.564;2024-01-30T14:02:12;10.53;;;7.67;;
10144;SDS011;5113;41.822;23.564;2024-01-30T14:05:20;5.73;;;3.80;;
10144;SDS011;5113;41.822;23.564;2024-01-30T14:08:27;8.47;;;5.50;;
10144;SDS011;5113;41.822;23.564;2024-01-30T14:11:34;5.43;;;3.50;;
10144;SDS011;5113;41.822;23.564;2024-01-30T14:14:40;10.33;;;7.50;;
10144;SDS011;5113;41.822;23.564;2024-01-30T14:17:47;7.13;;;5.80;;
10144;SDS011;5113;41.822;23.564;2024-01-30T14:20:57;6.10;;;4.40;;
10144;SDS011;5113;41.822;23.564;2024-01-30T14:24:04;8.60;;;4.23;;
10144;SDS011;5113;41.822;23.564;2024-01-30T14:27:10;22.53;;;9.43;;
10144;SDS011;5113;41.822;23.564;2024-01-30T14:30:18;20.97;;;10.63;;
10144;SDS011;5113;41.822;23.564;2024-01-30T14:33:25;16.43;;;8.97;;
10144;SDS011;5113;41.822;23.564;2024-01-30T14:36:33;6.50;;;5.10;;
10144;SDS011;5113;41.822;23.564;2024-01-30T14:39:40;12.77;;;6.77;;
10144;SDS011;5113;41.822;23.564;2024-01-30T14:42:46;11.87;;;7.63;;
10144;SDS011;5113;41.822;23.564;2024-01-30T14:45:54;14.53;;;9.47;;
10144;SDS011;5113;41.822;23.564;2024-01-30T14:49:03;22.63;;;12.33;;
10144;SDS011;5113;41.822;23.564;2024-01-30T14:52:12;21.30;;;10.13;;
10144;SDS011;5113;41.822;23.564;2024-01-30T14:55:19;17.87;;;9.70;;
10144;SDS011;5113;41.822;23.564;2024-01-30T14:58:27;10.63;;;7.93;;
10144;SDS011;5113;41.822;23.564;2024-01-30T15:01:35;17.10;;;7.63;;
10144;SDS011;5113;41.822;23.564;2024-01-30T15:04:41;20.40;;;12.00;;
10144;SDS011;5113;41.822;23.564;2024-01-30T15:07:50;26.03;;;13.27;;
10144;SDS011;5113;41.822;23.564;2024-01-30T15:10:56;28.20;;;14.27;;
10144;SDS011;5113;41.822;23.564;2024-01-30T15:14:04;38.80;;;16.87;;
10144;SDS011;5113;41.822;23.564;2024-01-30T15:17:11;46.83;;;22.83;;
10144;SDS011;5113;41.822;23.564;2024-01-30T15:20:18;38.50;;;16.60;;
10144;SDS011;5113;41.822;23.564;2024-01-30T15:23:26;98.73;;;41.73;;
10144;SDS011;5113;41.822;23.564;2024-01-30T15:26:33;48.13;;;20.20;;
10144;SDS011;5113;41.822;23.564;2024-01-30T15:29:40;29.93;;;13.53;;
10144;SDS011;5113;41.822;23.564;2024-01-30T15:32:46;16.43;;;10.07;;
10144;SDS011;5113;41.822;23.564;2024-01-30T15:35:53;23.47;;;11.83;;
10144;SDS011;5113;41.822;23.564;2024-01-30T15:39:01;43.03;;;20.10;;
10144;SDS011;5113;41.822;23.564;2024-01-30T15:42:09;47.37;;;22.53;;
10144;SDS011;5113;41.822;23.564;2024-01-30T15:45:16;43.57;;;18.70;;
10144;SDS011;5113;41.822;23.564;2024-01-30T15:48:22;39.53;;;17.07;;
10144;SDS011;5113;41.822;23.564;2024-01-30T15:51:29;38.23;;;19.03;;
10144;SDS011;5113;41.822;23.564;2024-01-30T15:54:37;44.53;;;19.53;;
10144;SDS011;5113;41.822;23.564;2024-01-30T15:57:44;32.77;;;18.67;;
10144;SDS011;5113;41.822;23.564;2024-01-30T16:00:50;29.30;;;17.10;;
10144;SDS011;5113;41.822;23.564;2024-01-30T16:03:57;38.53;;;21.33;;
10144;SDS011;5113;41.822;23.564;2024-01-30T16:07:03;41.97;;;25.23;;
10144;SDS011;5113;41.822;23.564;2024-01-30T16:10:12;36.97;;;20.53;;
10144;SDS011;5113;41.822;23.564;2024-01-30T16:13:20;40.37;;;22.23;;
10144;SDS011;5113;41.822;23.564;2024-01-30T16:16:27;40.70;;;20.70;;
10144;SDS011;5113;41.822;23.564;2024-01-30T16:19:34;37.50;;;20.13;;
10144;SDS011;5113;41.822;23.564;2024-01-30T16:22:41;37.57;;;18.37;;
10144;SDS011;5113;41.822;23.564;2024-01-30T16:25:49;58.87;;;28.77;;
10144;SDS011;5113;41.822;23.564;2024-01-30T16:28:57;58.77;;;27.60;;
10144;SDS011;5113;41.822;23.564;2024-01-30T16:32:03;78.73;;;35.90;;
10144;SDS011;5113;41.822;23.564;2024-01-30T16:35:10;43.13;;;21.97;;
10144;SDS011;5113;41.822;23.564;2024-01-30T16:38:17;33.53;;;18.13;;
10144;SDS011;5113;41.822;23.564;2024-01-30T16:41:26;31.93;;;18.93;;
10144;SDS011;5113;41.822;23.564;2024-01-30T16:44:32;35.87;;;19.07;;
10144;SDS011;5113;41.822;23.564;2024-01-30T16:47:39;26.53;;;14.80;;
10144;SDS011;5113;41.822;23.564;2024-01-30T16:50:45;28.43;;;16.60;;
10144;SDS011;5113;41.822;23.564;2024-01-30T16:53:53;30.53;;;17.67;;
10144;SDS011;5113;41.822;23.564;2024-01-30T16:57:00;34.07;;;18.93;;
10144;SDS011;5113;41.822;23.564;2024-01-30T17:00:07;36.03;;;18.83;;
10144;SDS011;5113;41.822;23.564;2024-01-30T17:03:15;55.73;;;28.23;;
10144;SDS011;5113;41.822;23.564;2024-01-30T17:06:21;88.90;;;38.90;;
10144;SDS011;5113;41.822;23.564;2024-01-30T17:09:28;74.37;;;34.03;;
10144;SDS011;5113;41.822;23.564;2024-01-30T17:12:37;36.37;;;23.20;;
10144;SDS011;5113;41.822;23.564;2024-01-30T17:15:43;38.90;;;22.70;;
10144;SDS011;5113;41.822;23.564;2024-01-30T17:18:50;29.10;;;15.23;;
10144;SDS011;5113;41.822;23.564;2024-01-30T17:21:57;23.90;;;12.13;;
10144;SDS011;5113;41.822;23.564;2024-01-30T17:25:04;42.40;;;18.53;;
10144;SDS011;5113;41.822;23.564;2024-01-30T17:28:13;41.17;;;19.30;;
10144;SDS011;5113;41.822;23.564;2024-01-30T17:31:19;41.87;;;21.47;;
10144;SDS011;5113;41.822;23.564;2024-01-30T17:34:26;85.00;;;39.27;;
10144;SDS011;5113;41.822;23.564;2024-01-30T17:37:33;64.80;;;30.90;;
10144;SDS011;5113;41.822;23.564;2024-01-30T17:40:39;70.27;;;31.37;;
10144;SDS011;5113;41.822;23.564;2024-01-30T17:43:48;57.00;;;28.37;;
10144;SDS011;5113;41.822;23.564;2024-01-30T17:46:54;41.90;;;22.43;;
10144;SDS011;5113;41.822;23.564;2024-01-30T17:50:01;53.07;;;22.77;;
10144;SDS011;5113;41.822;23.564;2024-01-30T17:53:08;39.40;;;19.77;;
10144;SDS011;5113;41.822;23.564;2024-01-30T17:56:15;41.47;;;17.97;;
10144;SDS011;5113;41.822;23.564;2024-01-30T17:59:22;80.30;;;31.73;;
10144;SDS011;5113;41.822;23.564;2024-01-30T18:02:29;65.60;;;26.00;;
10144;SDS011;5113;41.822;23.564;2024-01-30T18:05:35;53.30;;;21.87;;
10144;SDS011;5113;41.822;23.564;2024-01-30T18:08:43;53.37;;;23.80;;
10144;SDS011;5113;41.822;23.564;2024-01-30T18:11:49;49.07;;;24.47;;
10144;SDS011;5113;41.822;23.564;2024-01-30T18:14:58;41.53;;;20.10;;
10144;SDS011;5113;41.822;23.564;2024-01-30T18:18:04;41.80;;;22.67;;
10144;SDS011;5113;41.822;23.564;2024-01-30T18:21:11;49.47;;;22.33;;
10144;SDS011;5113;41.822;23.564;2024-01-30T18:24:19;48.90;;;23.17;;
10144;SDS011;5113;41.822;23.564;2024-01-30T18:27:29;51.90;;;26.03;;